Time;durP1;ratioP1;P1;durP2;ratioP2;P2;SDS_P1;SDS_P2;PMS_P1;PMS_P2;Temp;Humidity;BMP_temperature;BMP_pressure;BME280_temperature;BME280_humidity;BME280_pressure;Samples;Min_cycle;Max_cycle;Signal;HPM_P1;HPM_P2
2023/09/01 00:01:28;;;;;;;12.43;6.97;;;10.60;99.90;;;;;;4430163;28;660603;-69
2023/09/01 00:04:16;;;;;;;16.63;7.33;;;10.60;99.90;;;;;;4457941;27;660409;-66
2023/09/01 00:07:04;;;;;;;13.90;7.67;;;10.60;99.90;;;;;;4428140;28;660056;-66
2023/09/01 00:09:52;;;;;;;15.63;7.27;;;10.60;99.90;;;;;;4458838;28;659491;-66
2023/09/01 00:12:39;;;;;;;15.87;7.03;;;10.60;99.90;;;;;;4441024;28;661073;-66
2023/09/01 00:15:27;;;;;;;12.10;6.90;;;10.60;99.90;;;;;;4442823;28;659773;-66
2023/09/01 00:18:15;;;;;;;21.57;7.87;;;10.60;99.90;;;;;;4464870;27;660540;-66
2023/09/01 00:21:03;;;;;;;21.03;7.40;;;10.50;99.90;;;;;;4451874;27;660277;-66
2023/09/01 00:23:52;;;;;;;15.40;7.97;;;10.50;99.90;;;;;;4463857;28;661160;-65
2023/09/01 00:26:39;;;;;;;17.37;10.33;;;10.50;99.90;;;;;;4441475;28;660400;-66
2023/09/01 00:29:27;;;;;;;17.23;11.00;;;10.50;99.90;;;;;;4463249;28;661170;-66
2023/09/01 00:32:14;;;;;;;19.17;10.40;;;10.50;99.90;;;;;;4439348;28;662280;-65
2023/09/01 00:35:02;;;;;;;15.60;10.37;;;10.60;99.90;;;;;;4458284;27;660708;-65
2023/09/01 00:37:51;;;;;;;20.40;10.53;;;10.60;99.90;;;;;;4428033;28;661354;-66
2023/09/01 00:40:40;;;;;;;14.75;9.18;;;10.50;99.90;;;;;;4440068;28;660824;-65
2023/09/01 00:43:27;;;;;;;14.53;9.50;;;10.50;99.90;;;;;;4463156;28;659709;-65
2023/09/01 00:46:15;;;;;;;14.77;9.27;;;10.50;99.90;;;;;;4468671;28;661229;-65
2023/09/01 00:49:03;;;;;;;12.30;7.90;;;10.40;99.90;;;;;;4460924;28;659570;-65
2023/09/01 00:51:50;;;;;;;15.80;8.70;;;10.30;99.90;;;;;;4468782;28;660481;-65
2023/09/01 00:54:37;;;;;;;24.00;8.43;;;10.20;99.90;;;;;;4448166;28;660092;-65
2023/09/01 00:57:26;;;;;;;19.17;8.13;;;10.20;99.90;;;;;;4461769;28;660782;-65
2023/09/01 01:00:15;;;;;;;12.33;8.27;;;10.20;99.90;;;;;;4444679;28;660294;-66
2023/09/01 01:03:04;;;;;;;15.33;7.07;;;10.20;99.90;;;;;;4435853;28;659482;-65
2023/09/01 01:05:57;;;;;;;15.17;7.43;;;10.20;99.90;;;;;;4464119;28;660270;-65
2023/09/01 01:08:52;;;;;;;13.53;7.17;;;10.20;99.90;;;;;;4417923;28;660847;-66
2023/09/01 01:11:43;;;;;;;12.97;7.00;;;10.10;99.90;;;;;;4418452;27;660288;-66
2023/09/01 01:14:35;;;;;;;18.30;6.47;;;10.10;99.90;;;;;;4429221;28;659647;-65
2023/09/01 01:17:23;;;;;;;22.30;6.40;;;10.10;99.90;;;;;;4425102;27;659362;-65
2023/09/01 01:20:26;;;;;;;12.63;6.63;;;10.10;99.90;;;;;;4466473;27;661123;-65
2023/09/01 01:23:16;;;;;;;13.00;6.43;;;10.10;99.90;;;;;;4409572;27;661321;-65
2023/09/01 01:26:05;;;;;;;15.33;6.23;;;10.10;99.90;;;;;;4444960;27;660564;-65
2023/09/01 01:28:52;;;;;;;12.23;6.20;;;10.10;99.90;;;;;;4453512;27;659391;-65
2023/09/01 01:31:39;;;;;;;15.23;5.87;;;10.10;99.90;;;;;;4439171;27;661272;-66
2023/09/01 01:34:30;;;;;;;8.60;5.70;;;10.00;99.90;;;;;;4467277;27;659503;-65
2023/09/01 01:37:18;;;;;;;10.43;6.50;;;10.00;99.90;;;;;;4426514;27;658855;-65
2023/09/01 01:40:08;;;;;;;18.37;6.97;;;10.00;99.90;;;;;;4467507;27;660795;-65
2023/09/01 01:42:56;;;;;;;17.15;12.27;;;9.90;99.90;;;;;;4432105;27;661831;-65
2023/09/01 01:45:43;;;;;;;13.77;9.90;;;9.90;99.90;;;;;;4430661;28;659723;-65
2023/09/01 01:48:30;;;;;;;16.98;9.35;;;9.90;99.90;;;;;;4462135;27;659303;-65
2023/09/01 01:51:18;;;;;;;12.47;7.43;;;9.90;99.90;;;;;;4449355;27;658420;-65
2023/09/01 01:54:06;;;;;;;11.43;6.63;;;9.90;99.90;;;;;;4467355;28;659831;-65
2023/09/01 01:56:55;;;;;;;10.37;6.90;;;9.80;99.90;;;;;;4429084;28;658731;-65
2023/09/01 01:59:43;;;;;;;15.80;6.50;;;9.80;99.90;;;;;;4463846;27;659072;-65
2023/09/01 02:02:30;;;;;;;11.20;5.97;;;9.80;99.90;;;;;;4466261;27;659809;-65
2023/09/01 02:05:18;;;;;;;16.17;6.10;;;9.80;99.90;;;;;;4451382;28;658569;-65
2023/09/01 02:08:05;;;;;;;13.77;7.30;;;9.70;99.90;;;;;;4469928;27;659888;-66
2023/09/01 02:10:53;;;;;;;10.73;8.00;;;9.70;99.90;;;;;;4431623;28;659023;-65
2023/09/01 02:13:42;;;;;;;12.90;7.73;;;9.60;99.90;;;;;;4450898;28;659642;-65
2023/09/01 02:16:29;;;;;;;13.03;8.13;;;9.60;99.90;;;;;;4442533;27;660082;-65
2023/09/01 02:19:16;;;;;;;9.90;7.17;;;9.60;99.90;;;;;;4467555;27;658836;-65
2023/09/01 02:22:05;;;;;;;13.20;6.70;;;9.60;99.90;;;;;;4443020;27;657398;-65
2023/09/01 02:24:53;;;;;;;13.57;6.68;;;9.60;99.90;;;;;;4430817;28;658290;-65
2023/09/01 02:27:41;;;;;;;9.63;6.30;;;9.60;99.90;;;;;;4461764;27;659247;-65
2023/09/01 02:30:30;;;;;;;14.77;6.43;;;9.60;99.90;;;;;;4449992;27;657716;-66
2023/09/01 02:33:18;;;;;;;12.13;6.03;;;9.60;99.90;;;;;;4467051;27;659380;-65
2023/09/01 02:36:24;;;;;;;11.53;5.50;;;9.60;99.90;;;;;;4467696;27;658442;-66
2023/09/01 02:39:11;;;;;;;10.27;5.93;;;9.60;99.90;;;;;;4435836;27;658742;-65
2023/09/01 02:42:00;;;;;;;9.00;6.33;;;9.70;99.90;;;;;;4435250;27;658435;-65
2023/09/01 02:44:47;;;;;;;11.97;6.60;;;9.60;99.90;;;;;;4451162;28;657895;-65
2023/09/01 02:47:36;;;;;;;9.90;6.60;;;9.70;99.90;;;;;;4427018;28;660040;-65
2023/09/01 02:50:23;;;;;;;10.77;6.33;;;9.70;99.90;;;;;;4431430;28;658327;-65
2023/09/01 02:53:11;;;;;;;12.07;6.17;;;9.70;99.90;;;;;;4454251;27;659221;-65
2023/09/01 02:55:58;;;;;;;12.30;6.10;;;9.70;99.90;;;;;;4443719;27;660786;-65
2023/09/01 02:58:45;;;;;;;17.53;5.60;;;9.80;99.90;;;;;;4470231;27;658591;-65
2023/09/01 03:01:33;;;;;;;9.97;5.63;;;9.80;99.90;;;;;;4447108;27;658186;-65
2023/09/01 03:04:22;;;;;;;10.03;6.00;;;9.80;99.90;;;;;;4468324;27;659500;-65
2023/09/01 03:07:09;;;;;;;12.27;6.10;;;9.80;99.90;;;;;;4446259;28;659827;-65
2023/09/01 03:09:57;;;;;;;8.43;5.70;;;9.90;99.90;;;;;;4470897;27;659317;-65
2023/09/01 03:12:44;;;;;;;12.27;5.27;;;9.90;99.90;;;;;;4441179;27;658820;-65
2023/09/01 03:15:32;;;;;;;10.80;5.80;;;9.90;99.90;;;;;;4467023;27;659004;-65
2023/09/01 03:18:19;;;;;;;9.67;5.60;;;9.90;99.90;;;;;;4447769;27;659248;-65
2023/09/01 03:21:11;;;;;;;11.77;5.67;;;9.90;99.90;;;;;;4468182;27;657772;-65
2023/09/01 03:23:58;;;;;;;10.03;5.20;;;9.80;99.90;;;;;;4447846;27;659517;-65
2023/09/01 03:26:46;;;;;;;6.90;4.83;;;9.80;99.90;;;;;;4466263;27;659324;-65
2023/09/01 03:29:33;;;;;;;11.20;6.20;;;9.80;99.90;;;;;;4434705;27;658550;-65
2023/09/01 03:32:20;;;;;;;9.67;5.00;;;9.80;99.90;;;;;;4467462;27;660736;-65
2023/09/01 03:35:09;;;;;;;11.53;5.47;;;9.70;99.90;;;;;;4448134;27;657506;-65
2023/09/01 03:37:58;;;;;;;8.20;4.93;;;9.60;99.90;;;;;;4469356;27;659420;-65
2023/09/01 03:40:45;;;;;;;12.23;4.90;;;9.60;99.90;;;;;;4444752;27;658146;-65
2023/09/01 03:43:33;;;;;;;14.87;5.20;;;9.60;99.90;;;;;;4457998;27;658916;-65
2023/09/01 03:46:20;;;;;;;13.63;5.27;;;9.60;99.90;;;;;;4459996;27;660136;-65
2023/09/01 03:49:07;;;;;;;10.10;4.70;;;9.60;99.90;;;;;;4441047;28;659108;-65
2023/09/01 03:51:55;;;;;;;9.13;5.13;;;9.60;99.90;;;;;;4448407;28;659319;-65
2023/09/01 03:54:44;;;;;;;12.43;4.73;;;9.50;99.90;;;;;;4457044;28;657764;-65
2023/09/01 03:57:31;;;;;;;11.07;4.83;;;9.50;99.90;;;;;;4465356;28;658871;-65
2023/09/01 04:00:20;;;;;;;11.17;4.77;;;9.50;99.90;;;;;;4447006;27;658961;-65
2023/09/01 04:03:08;;;;;;;8.63;4.77;;;9.40;99.90;;;;;;4456016;27;662275;-66
2023/09/01 04:05:57;;;;;;;7.33;4.70;;;9.40;99.90;;;;;;4471525;27;659191;-65
2023/09/01 04:08:45;;;;;;;12.95;5.35;;;9.40;99.90;;;;;;4430299;28;657850;-66
2023/09/01 04:11:34;;;;;;;6.53;5.00;;;9.40;99.90;;;;;;4428901;28;658429;-65
2023/09/01 04:14:21;;;;;;;10.93;4.97;;;9.40;99.90;;;;;;4446739;28;658239;-65
2023/09/01 04:17:09;;;;;;;8.80;5.60;;;9.40;99.90;;;;;;4429596;28;658536;-65
2023/09/01 04:19:56;;;;;;;14.70;5.40;;;9.40;99.90;;;;;;4456737;27;658545;-65
2023/09/01 04:22:43;;;;;;;11.53;6.63;;;9.40;99.90;;;;;;4429085;28;658484;-65
2023/09/01 04:25:31;;;;;;;11.83;6.70;;;9.40;99.90;;;;;;4448251;28;659018;-65
2023/09/01 04:28:19;;;;;;;7.53;5.47;;;9.50;99.90;;;;;;4427947;28;658662;-65
2023/09/01 04:31:15;;;;;;;11.97;5.83;;;9.50;99.90;;;;;;4449366;28;658276;-65
2023/09/01 04:34:03;;;;;;;12.17;7.00;;;9.50;99.90;;;;;;4426259;28;658354;-65
2023/09/01 04:36:50;;;;;;;12.77;7.10;;;9.50;99.90;;;;;;4462228;27;660044;-65
2023/09/01 04:39:37;;;;;;;10.10;7.23;;;9.60;99.90;;;;;;4448848;28;658629;-65
2023/09/01 04:42:25;;;;;;;15.97;8.43;;;9.70;99.90;;;;;;4464866;28;659784;-65
2023/09/01 04:45:14;;;;;;;11.83;7.73;;;9.70;99.90;;;;;;4460557;28;658549;-65
2023/09/01 04:48:01;;;;;;;20.37;9.00;;;9.80;99.90;;;;;;4465426;28;658733;-65
2023/09/01 04:50:49;;;;;;;22.67;9.27;;;9.90;99.90;;;;;;4440411;28;658508;-65
2023/09/01 04:53:36;;;;;;;17.07;9.83;;;10.00;99.90;;;;;;4447881;28;658920;-65
2023/09/01 04:56:23;;;;;;;13.57;8.97;;;10.00;99.90;;;;;;4441928;28;659578;-65
2023/09/01 04:59:11;;;;;;;16.90;9.53;;;10.10;99.90;;;;;;4463522;27;660894;-65
2023/09/01 05:02:00;;;;;;;17.47;9.73;;;10.20;99.90;;;;;;4427634;28;659736;-65
2023/09/01 05:04:48;;;;;;;21.20;10.53;;;10.30;99.90;;;;;;4429375;28;660261;-65
2023/09/01 05:07:35;;;;;;;15.73;9.57;;;10.40;99.90;;;;;;4448493;28;661702;-65
2023/09/01 05:10:23;;;;;;;15.48;10.57;;;10.50;99.90;;;;;;4434778;27;659586;-65
2023/09/01 05:13:10;;;;;;;23.77;11.60;;;10.60;99.90;;;;;;4459161;28;661421;-65
2023/09/01 05:15:58;;;;;;;16.57;10.50;;;10.70;99.90;;;;;;4455440;28;661237;-65
2023/09/01 05:18:46;;;;;;;16.83;10.00;;;10.80;99.90;;;;;;4442287;28;661598;-65
2023/09/01 05:21:34;;;;;;;17.50;9.93;;;10.90;99.90;;;;;;4432616;28;661415;-65
2023/09/01 05:24:21;;;;;;;23.30;9.73;;;11.00;99.90;;;;;;4461087;28;659636;-65
2023/09/01 05:27:08;;;;;;;13.93;9.67;;;11.20;99.90;;;;;;4440583;28;659948;-65
2023/09/01 05:29:56;;;;;;;16.03;9.43;;;11.30;99.90;;;;;;4461905;28;661851;-65
2023/09/01 05:32:43;;;;;;;18.83;8.70;;;11.40;99.90;;;;;;4434117;28;659715;-65
2023/09/01 05:35:33;;;;;;;16.37;8.20;;;11.50;99.90;;;;;;4449991;28;659326;-65
2023/09/01 05:38:20;;;;;;;12.20;7.67;;;11.60;99.90;;;;;;4426690;28;661320;-66
2023/09/01 05:41:10;;;;;;;12.63;8.53;;;11.80;99.90;;;;;;4452056;28;659957;-65
2023/09/01 05:43:58;;;;;;;13.53;7.73;;;11.90;99.90;;;;;;4445099;28;659886;-65
2023/09/01 05:46:45;;;;;;;13.13;7.20;;;12.00;99.90;;;;;;4453554;28;660867;-65
2023/09/01 05:49:33;;;;;;;9.17;6.60;;;12.20;99.90;;;;;;4452655;28;660577;-64
2023/09/01 05:52:21;;;;;;;11.47;7.27;;;12.30;99.90;;;;;;4462794;28;660425;-64
2023/09/01 05:55:09;;;;;;;14.40;7.20;;;12.50;99.90;;;;;;4429834;28;659661;-64
2023/09/01 05:57:56;;;;;;;21.40;7.90;;;12.60;99.90;;;;;;4449886;27;659788;-63
2023/09/01 06:00:44;;;;;;;12.27;7.20;;;12.80;99.90;;;;;;4441290;27;659526;-64
2023/09/01 06:03:31;;;;;;;21.37;7.13;;;12.90;99.90;;;;;;4464705;27;660266;-63
2023/09/01 06:06:18;;;;;;;9.47;6.20;;;13.10;99.90;;;;;;4442849;27;659953;-64
2023/09/01 06:09:07;;;;;;;9.93;6.60;;;13.20;99.90;;;;;;4455753;28;659952;-64
2023/09/01 06:11:55;;;;;;;14.37;6.20;;;13.30;99.90;;;;;;4433449;28;659806;-64
2023/09/01 06:14:42;;;;;;;9.83;6.00;;;13.40;99.90;;;;;;4456002;27;659585;-64
2023/09/01 06:17:30;;;;;;;9.80;5.80;;;13.40;99.90;;;;;;4462545;27;660299;-64
2023/09/01 06:20:18;;;;;;;10.70;5.67;;;13.50;99.90;;;;;;4455562;27;658835;-65
2023/09/01 06:23:05;;;;;;;8.43;5.40;;;13.60;99.90;;;;;;4457475;27;662178;-64
2023/09/01 06:25:54;;;;;;;15.93;5.60;;;13.80;99.90;;;;;;4453797;27;658955;-64
2023/09/01 06:28:41;;;;;;;7.37;4.93;;;13.80;99.90;;;;;;4451908;27;659483;-64
2023/09/01 06:31:29;;;;;;;12.00;5.30;;;13.90;99.90;;;;;;4434687;27;658989;-64
2023/09/01 06:34:16;;;;;;;10.40;4.77;;;14.00;99.90;;;;;;4460844;27;659950;-64
2023/09/01 06:37:04;;;;;;;7.77;4.53;;;14.20;99.90;;;;;;4442572;27;659692;-64
2023/09/01 06:39:51;;;;;;;11.57;4.33;;;14.20;99.90;;;;;;4443289;28;659615;-64
2023/09/01 06:42:40;;;;;;;8.87;4.33;;;14.40;99.90;;;;;;4426278;28;659790;-64
2023/09/01 06:45:27;;;;;;;11.20;4.23;;;14.40;99.90;;;;;;4438609;28;658740;-64
2023/09/01 06:48:15;;;;;;;12.77;4.67;;;14.50;99.90;;;;;;4463335;27;660561;-64
2023/09/01 06:51:03;;;;;;;7.07;3.90;;;14.60;99.90;;;;;;4446161;27;659988;-64
2023/09/01 06:53:50;;;;;;;9.07;4.07;;;14.70;99.90;;;;;;4465390;27;660278;-64
2023/09/01 06:56:38;;;;;;;9.77;4.10;;;14.80;99.90;;;;;;4452985;28;659032;-64
2023/09/01 06:59:26;;;;;;;8.67;3.60;;;15.00;99.90;;;;;;4464014;27;660432;-64
2023/09/01 07:02:14;;;;;;;7.35;3.70;;;15.00;99.90;;;;;;4427656;27;659013;-65
2023/09/01 07:05:02;;;;;;;11.90;3.83;;;15.10;99.90;;;;;;4452202;27;658753;-64
2023/09/01 07:07:50;;;;;;;5.27;3.60;;;15.30;99.90;;;;;;4437278;27;661075;-65
2023/09/01 07:10:38;;;;;;;7.20;3.03;;;15.50;99.90;;;;;;4454448;27;658882;-65
2023/09/01 07:13:25;;;;;;;7.87;3.43;;;15.60;99.90;;;;;;4432357;28;660010;-65
2023/09/01 07:16:14;;;;;;;5.50;3.37;;;15.70;99.90;;;;;;4439917;28;659377;-65
2023/09/01 07:19:02;;;;;;;6.77;3.20;;;15.90;99.90;;;;;;4460768;28;658514;-65
2023/09/01 07:21:49;;;;;;;6.57;3.20;;;16.00;99.90;;;;;;4430360;27;658778;-64
2023/09/01 07:24:36;;;;;;;7.57;3.47;;;16.20;99.90;;;;;;4456094;27;659304;-64
2023/09/01 07:27:23;;;;;;;5.90;2.70;;;16.30;99.90;;;;;;4440613;27;658590;-64
2023/09/01 07:30:13;;;;;;;7.40;2.80;;;16.20;99.90;;;;;;4454786;28;659862;-64
2023/09/01 07:33:02;;;;;;;7.63;2.93;;;16.40;99.90;;;;;;4442284;27;659345;-64
2023/09/01 07:35:50;;;;;;;7.60;2.97;;;16.50;99.90;;;;;;4435803;27;658597;-64
2023/09/01 07:38:40;;;;;;;6.40;2.97;;;16.60;99.90;;;;;;4440149;28;658489;-64
2023/09/01 07:41:27;;;;;;;6.97;2.60;;;16.80;99.90;;;;;;4453683;27;658852;-64
2023/09/01 07:44:17;;;;;;;4.23;2.63;;;17.00;99.90;;;;;;4455268;28;660018;-64
2023/09/01 07:47:05;;;;;;;6.90;3.37;;;16.90;99.90;;;;;;4432949;27;658899;-64
2023/09/01 07:49:54;;;;;;;7.67;3.10;;;16.80;99.90;;;;;;4452709;28;658846;-64
2023/09/01 07:52:41;;;;;;;7.83;3.00;;;17.10;99.90;;;;;;4456245;27;658577;-64
2023/09/01 07:55:29;;;;;;;6.97;2.90;;;17.40;99.90;;;;;;4433014;28;658430;-63
2023/09/01 07:58:16;;;;;;;6.53;3.20;;;17.50;99.90;;;;;;4456783;28;658605;-63
2023/09/01 08:01:03;;;;;;;9.37;2.90;;;17.60;99.90;;;;;;4439667;27;658543;-64
2023/09/01 08:03:51;;;;;;;7.80;2.57;;;18.00;99.90;;;;;;4452167;27;660078;-64
2023/09/01 08:06:39;;;;;;;7.33;2.70;;;17.80;99.90;;;;;;4433567;27;658781;-64
2023/09/01 08:09:27;;;;;;;7.13;3.25;;;17.70;99.90;;;;;;4462709;27;659803;-64
2023/09/01 08:12:14;;;;;;;8.90;2.60;;;17.90;99.90;;;;;;4443962;28;658883;-64
2023/09/01 08:15:01;;;;;;;6.80;2.80;;;17.90;99.90;;;;;;4463022;27;659195;-63
2023/09/01 08:17:50;;;;;;;5.23;2.97;;;17.80;99.90;;;;;;4439072;27;658714;-64
2023/09/01 08:20:38;;;;;;;7.37;2.83;;;18.00;99.90;;;;;;4454545;27;659016;-64
2023/09/01 08:23:26;;;;;;;8.07;3.00;;;17.90;99.90;;;;;;4457939;27;660810;-64
2023/09/01 08:26:14;;;;;;;6.40;3.23;;;18.00;99.90;;;;;;4436330;27;658886;-64
2023/09/01 08:29:04;;;;;;;8.00;2.73;;;18.20;99.90;;;;;;4459645;27;659154;-64
2023/09/01 08:31:51;;;;;;;5.87;2.27;;;18.40;99.90;;;;;;4436026;27;658951;-64
2023/09/01 08:34:38;;;;;;;5.87;2.23;;;18.20;99.90;;;;;;4439788;28;658759;-63
2023/09/01 08:37:26;;;;;;;4.90;2.23;;;18.20;99.90;;;;;;4453603;28;660320;-64
2023/09/01 08:40:14;;;;;;;5.27;2.47;;;18.10;99.90;;;;;;4443595;27;658407;-63
2023/09/01 08:43:02;;;;;;;7.20;2.37;;;18.40;99.90;;;;;;4458889;28;658889;-63
2023/09/01 08:45:49;;;;;;;7.60;2.30;;;18.50;99.90;;;;;;4443123;28;658778;-63
2023/09/01 08:48:36;;;;;;;8.07;2.23;;;18.80;99.90;;;;;;4458771;28;658726;-63
2023/09/01 08:51:24;;;;;;;5.63;2.30;;;18.90;99.90;;;;;;4441234;28;658569;-63
2023/09/01 08:54:11;;;;;;;8.57;2.40;;;18.80;99.90;;;;;;4461588;28;660280;-63
2023/09/01 08:57:00;;;;;;;6.70;2.53;;;18.60;99.90;;;;;;4435134;27;659710;-64
2023/09/01 08:59:47;;;;;;;7.63;2.10;;;18.60;99.90;;;;;;4447930;27;659248;-64
2023/09/01 09:02:35;;;;;;;7.07;2.17;;;18.70;99.90;;;;;;4460063;28;660562;-64
2023/09/01 09:05:23;;;;;;;7.23;2.30;;;18.80;99.90;;;;;;4437289;28;659047;-64
2023/09/01 09:08:10;;;;;;;6.63;2.60;;;18.60;99.90;;;;;;4459866;28;660308;-64
2023/09/01 09:10:57;;;;;;;8.60;2.40;;;18.80;99.90;;;;;;4434255;28;659661;-64
2023/09/01 09:13:47;;;;;;;6.00;2.20;;;18.70;99.90;;;;;;4454536;28;659383;-63
2023/09/01 09:16:36;;;;;;;9.17;2.57;;;18.80;99.90;;;;;;4435935;28;659619;-63
2023/09/01 09:19:24;;;;;;;6.77;2.20;;;18.60;99.90;;;;;;4435407;27;658177;-64
2023/09/01 09:22:11;;;;;;;5.50;2.30;;;18.30;99.90;;;;;;4457645;28;659278;-63
2023/09/01 09:24:59;;;;;;;5.90;2.37;;;18.60;99.90;;;;;;4438727;28;659453;-63
2023/09/01 09:27:46;;;;;;;9.97;2.53;;;18.80;99.90;;;;;;4462031;28;660074;-63
2023/09/01 09:30:35;;;;;;;4.90;2.33;;;19.10;99.90;;;;;;4431430;28;659015;-64
2023/09/01 09:33:27;;;;;;;4.67;2.00;;;19.00;99.90;;;;;;4441084;28;658831;-64
2023/09/01 09:36:14;;;;;;;6.80;2.43;;;19.40;99.90;;;;;;4436304;27;658837;-63
2023/09/01 09:39:01;;;;;;;5.33;2.20;;;19.90;99.90;;;;;;4461427;27;659249;-63
2023/09/01 09:41:49;;;;;;;9.20;2.50;;;20.70;99.90;;;;;;4438779;28;658302;-64
2023/09/01 09:44:36;;;;;;;5.70;2.20;;;21.20;99.90;;;;;;4449871;28;659249;-63
2023/09/01 09:47:25;;;;;;;5.37;2.10;;;21.30;93.60;;;;;;4438896;27;658540;-64
2023/09/01 09:50:12;;;;;;;8.20;2.27;;;21.10;79.60;;;;;;4464938;27;658813;-63
2023/09/01 09:53:00;;;;;;;5.53;1.70;;;20.90;90.30;;;;;;4432928;27;660961;-64
2023/09/01 09:55:48;;;;;;;3.27;2.20;;;20.50;87.70;;;;;;4445873;27;659385;-64
2023/09/01 09:58:39;;;;;;;6.23;2.10;;;19.60;91.10;;;;;;4451504;27;658776;-63
2023/09/01 10:01:26;;;;;;;7.30;2.10;;;19.90;86.20;;;;;;4438954;27;659129;-63
2023/09/01 10:04:15;;;;;;;5.37;2.23;;;19.50;89.10;;;;;;4436012;27;661354;-64
2023/09/01 10:07:03;;;;;;;8.87;2.30;;;19.70;92.00;;;;;;4462390;27;659032;-64
2023/09/01 10:09:50;;;;;;;7.50;2.57;;;20.00;98.30;;;;;;4467283;27;659353;-64
2023/09/01 10:12:38;;;;;;;7.27;2.00;;;19.70;89.00;;;;;;4445137;27;659011;-64
2023/09/01 10:15:25;;;;;;;7.20;2.40;;;19.60;88.90;;;;;;4462908;27;659891;-64
2023/09/01 10:18:13;;;;;;;4.40;2.20;;;19.40;95.00;;;;;;4429773;27;658820;-65
2023/09/01 10:21:02;;;;;;;7.87;2.57;;;19.50;94.80;;;;;;4456680;27;659165;-65
2023/09/01 10:23:49;;;;;;;4.83;2.00;;;19.50;99.90;;;;;;4432914;28;660818;-64
2023/09/01 10:26:38;;;;;;;4.83;2.33;;;19.90;99.90;;;;;;4463354;27;659521;-65
2023/09/01 10:29:31;;;;;;;4.57;2.30;;;20.00;92.60;;;;;;4437541;27;659448;-64
2023/09/01 10:32:18;;;;;;;4.40;2.17;;;19.60;91.30;;;;;;4411062;27;660083;-64
2023/09/01 10:35:07;;;;;;;6.70;2.33;;;19.80;94.20;;;;;;4449984;27;659541;-63
2023/09/01 10:38:11;;;;;;;7.00;2.50;;;20.30;93.90;;;;;;4440417;27;658977;-63
2023/09/01 10:40:59;;;;;;;4.47;2.47;;;21.00;95.80;;;;;;4413147;28;658346;-63
2023/09/01 10:43:52;;;;;;;7.35;2.45;;;21.70;93.20;;;;;;4458261;27;658775;-63
2023/09/01 10:46:40;;;;;;;5.33;2.50;;;21.70;90.10;;;;;;4440274;27;658624;-64
2023/09/01 10:49:54;;;;;;;6.43;2.27;;;21.10;81.70;;;;;;4462040;27;658557;-64
2023/09/01 10:52:44;;;;;;;4.73;2.27;;;20.50;90.10;;;;;;4432135;27;658516;-63
2023/09/01 10:55:34;;;;;;;5.17;2.13;;;20.50;90.30;;;;;;4433997;27;659286;-63
2023/09/01 10:58:21;;;;;;;4.67;1.83;;;20.20;85.80;;;;;;4432114;27;658559;-64
2023/09/01 11:01:31;;;;;;;7.00;2.17;;;20.70;92.40;;;;;;4440493;27;658716;-64
2023/09/01 11:04:31;;;;;;;4.53;2.03;;;20.50;89.20;;;;;;4416191;27;660181;-63
2023/09/01 11:07:19;;;;;;;6.67;2.33;;;20.10;88.70;;;;;;4415054;27;659940;-64
2023/09/01 11:10:07;;;;;;;8.47;2.17;;;20.10;90.30;;;;;;4455306;28;660580;-64
2023/09/01 11:12:55;;;;;;;5.63;2.10;;;20.20;87.40;;;;;;4439465;27;659019;-64
2023/09/01 11:15:46;;;;;;;6.47;2.23;;;19.60;90.20;;;;;;4442512;27;658865;-65
2023/09/01 11:18:34;;;;;;;3.97;2.10;;;19.90;87.70;;;;;;4441700;27;658469;-65
2023/09/01 11:21:21;;;;;;;8.00;2.20;;;19.90;86.00;;;;;;4460974;28;659332;-64
2023/09/01 11:24:08;;;;;;;4.43;2.40;;;19.80;90.80;;;;;;4439592;28;658724;-64
2023/09/01 11:26:55;;;;;;;5.30;2.70;;;19.70;90.90;;;;;;4455952;28;660686;-64
2023/09/01 11:29:49;;;;;;;5.17;2.27;;;19.20;92.90;;;;;;4440298;27;658866;-64
2023/09/01 11:32:36;;;;;;;4.65;2.33;;;19.40;93.80;;;;;;4415211;28;660366;-64
2023/09/01 11:35:27;;;;;;;7.93;2.33;;;19.50;94.60;;;;;;4440511;27;660178;-65
2023/09/01 11:38:18;;;;;;;3.93;2.20;;;19.50;95.20;;;;;;4438335;27;658518;-64
2023/09/01 11:41:08;;;;;;;5.20;2.43;;;19.50;92.30;;;;;;4433292;27;659162;-65
2023/09/01 11:43:55;;;;;;;6.00;2.40;;;19.60;93.10;;;;;;4437512;27;660056;-64
2023/09/01 11:46:44;;;;;;;9.17;2.10;;;19.50;91.30;;;;;;4439186;27;659199;-65
2023/09/01 11:49:31;;;;;;;10.20;2.60;;;19.50;99.50;;;;;;4458093;27;659181;-64
2023/09/01 11:52:19;;;;;;;6.40;2.20;;;19.50;92.50;;;;;;4431462;27;661749;-65
2023/09/01 11:55:06;;;;;;;9.07;2.30;;;19.60;94.70;;;;;;4459820;27;659274;-65
2023/09/01 11:57:54;;;;;;;8.17;2.67;;;19.30;93.60;;;;;;4434097;27;659732;-64
2023/09/01 12:00:41;;;;;;;7.37;2.20;;;19.20;99.40;;;;;;4455743;28;659079;-64
2023/09/01 12:03:30;;;;;;;9.60;2.50;;;19.30;98.80;;;;;;4436375;27;659022;-64
2023/09/01 12:06:18;;;;;;;11.40;2.43;;;19.10;94.60;;;;;;4443333;28;659456;-64
2023/09/01 12:09:13;;;;;;;8.20;2.00;;;19.30;94.40;;;;;;4457825;27;660368;-64
2023/09/01 12:12:02;;;;;;;6.37;2.20;;;19.60;99.80;;;;;;4415267;27;659509;-65
2023/09/01 12:14:49;;;;;;;5.00;2.20;;;19.90;91.90;;;;;;4438748;27;660066;-65
2023/09/01 12:17:37;;;;;;;7.33;1.90;;;20.10;94.70;;;;;;4454688;27;658307;-64
2023/09/01 12:20:25;;;;;;;5.37;1.90;;;20.20;90.10;;;;;;4443417;27;658615;-65
2023/09/01 12:23:13;;;;;;;4.83;2.17;;;20.10;88.30;;;;;;4443452;27;659288;-65
2023/09/01 12:26:01;;;;;;;4.60;1.77;;;19.90;91.30;;;;;;4454688;28;660512;-65
2023/09/01 12:28:50;;;;;;;5.13;2.20;;;20.30;91.50;;;;;;4437249;27;659157;-65
2023/09/01 12:31:38;;;;;;;6.27;2.00;;;20.80;90.60;;;;;;4444867;27;659054;-65
2023/09/01 12:34:25;;;;;;;5.10;2.30;;;21.10;88.70;;;;;;4461996;27;659670;-65
2023/09/01 12:37:14;;;;;;;7.07;2.27;;;21.30;85.00;;;;;;4450607;28;658837;-64
2023/09/01 12:40:01;;;;;;;4.97;1.83;;;22.00;91.00;;;;;;4456193;27;658354;-65
2023/09/01 12:42:48;;;;;;;4.30;2.20;;;21.60;76.70;;;;;;4437667;28;658307;-64
2023/09/01 12:45:36;;;;;;;6.33;2.20;;;21.70;80.60;;;;;;4451892;28;659450;-64
2023/09/01 12:48:23;;;;;;;6.73;2.30;;;21.40;79.40;;;;;;4431948;28;658721;-65
2023/09/01 12:51:10;;;;;;;4.80;2.10;;;21.50;74.30;;;;;;4458534;28;659569;-64
2023/09/01 12:53:59;;;;;;;7.10;2.50;;;21.40;78.00;;;;;;4437591;28;658995;-65
2023/09/01 12:56:47;;;;;;;6.83;2.33;;;20.70;87.70;;;;;;4451147;28;658882;-64
2023/09/01 12:59:34;;;;;;;7.43;2.33;;;20.70;84.20;;;;;;4436183;27;658984;-64
2023/09/01 13:02:23;;;;;;;5.13;2.27;;;20.80;84.80;;;;;;4453545;28;659928;-65
2023/09/01 13:05:10;;;;;;;5.67;2.67;;;21.00;88.10;;;;;;4431147;28;660051;-65
2023/09/01 13:07:59;;;;;;;7.27;2.53;;;20.90;88.10;;;;;;4434910;27;658697;-65
2023/09/01 13:10:48;;;;;;;5.97;2.40;;;21.60;87.10;;;;;;4459574;27;659506;-64
2023/09/01 13:13:35;;;;;;;3.97;1.90;;;21.40;88.80;;;;;;4433657;27;659394;-64
2023/09/01 13:16:28;;;;;;;5.40;2.40;;;21.50;86.00;;;;;;4452925;27;658516;-65
2023/09/01 13:19:16;;;;;;;4.30;2.30;;;21.30;99.90;;;;;;4433673;27;659851;-64
2023/09/01 13:22:03;;;;;;;5.40;2.13;;;20.70;87.60;;;;;;4444868;27;659561;-65
2023/09/01 13:24:50;;;;;;;5.20;2.33;;;20.90;84.90;;;;;;4461253;27;659663;-64
2023/09/01 13:27:39;;;;;;;7.03;2.43;;;20.90;83.40;;;;;;4432572;27;658933;-64
2023/09/01 13:30:26;;;;;;;7.70;2.30;;;21.10;86.80;;;;;;4460591;27;659554;-64
2023/09/01 13:33:15;;;;;;;6.37;2.50;;;21.30;89.80;;;;;;4439268;27;659447;-64
2023/09/01 13:36:02;;;;;;;4.93;2.30;;;21.80;84.70;;;;;;4444530;27;658215;-65
2023/09/01 13:38:50;;;;;;;4.53;2.30;;;22.10;80.00;;;;;;4460405;27;659676;-65
2023/09/01 13:41:37;;;;;;;4.83;2.50;;;22.10;80.90;;;;;;4452229;27;658608;-64
2023/09/01 13:44:26;;;;;;;5.93;2.70;;;22.20;81.60;;;;;;4457464;27;659779;-64
2023/09/01 13:47:13;;;;;;;7.10;2.43;;;22.30;75.40;;;;;;4442024;27;658844;-65
2023/09/01 13:50:01;;;;;;;5.73;2.53;;;22.10;82.90;;;;;;4458278;27;659395;-65
2023/09/01 13:52:48;;;;;;;5.87;2.60;;;22.00;75.50;;;;;;4446777;27;658612;-65
2023/09/01 13:55:36;;;;;;;7.80;2.30;;;21.70;76.40;;;;;;4458051;27;659224;-65
2023/09/01 13:58:23;;;;;;;4.83;2.40;;;22.50;79.60;;;;;;4439949;27;659253;-65
2023/09/01 14:01:12;;;;;;;6.77;2.40;;;22.40;76.30;;;;;;4464176;27;659443;-64
2023/09/01 14:03:59;;;;;;;7.10;2.30;;;22.60;77.30;;;;;;4441302;27;658983;-64
2023/09/01 14:06:47;;;;;;;8.93;2.57;;;22.40;74.50;;;;;;4466077;27;658061;-64
2023/09/01 14:09:35;;;;;;;4.53;2.20;;;22.40;74.00;;;;;;4429634;28;658638;-63
2023/09/01 14:12:22;;;;;;;4.40;2.10;;;22.70;76.80;;;;;;4446956;27;658364;-66
2023/09/01 14:15:10;;;;;;;4.53;2.13;;;22.70;83.30;;;;;;4454542;27;659251;-65
2023/09/01 14:17:59;;;;;;;8.38;2.67;;;22.90;74.40;;;;;;4446294;27;659024;-65
2023/09/01 14:20:48;;;;;;;8.57;2.53;;;23.40;76.60;;;;;;4452838;28;658332;-64
2023/09/01 14:23:35;;;;;;;5.80;2.40;;;23.50;73.90;;;;;;4433625;27;659314;-65